createdAt,value
2019-03-16T00:00:14.174Z,35.68
2019-03-16T00:02:43.056Z,37.80
2019-03-16T00:05:11.912Z,41.55
2019-03-16T00:07:40.784Z,36.48
2019-03-16T00:10:09.674Z,35.40
2019-03-16T00:12:38.529Z,31.82
2019-03-16T00:15:08.131Z,35.78
2019-03-16T00:17:37.013Z,38.83
2019-03-16T00:20:08.650Z,36.60
2019-03-16T00:22:40.787Z,40.75
2019-03-16T00:25:10.172Z,28.60
2019-03-16T00:27:39.056Z,19.10
2019-03-16T00:30:10.812Z,14.05
2019-03-16T00:32:39.676Z,16.10
2019-03-16T00:35:08.545Z,11.20
2019-03-16T00:37:38.180Z,24.35
2019-03-16T00:40:08.896Z,17.45
2019-03-16T00:42:38.036Z,18.05
2019-03-16T00:45:10.313Z,15.60
2019-03-16T00:47:40.802Z,16.17
2019-03-16T00:50:11.976Z,18.23
2019-03-16T00:52:40.845Z,16.32
2019-03-16T00:55:10.149Z,24.30
2019-03-16T00:57:39.009Z,15.45
2019-03-16T01:00:11.018Z,11.50
2019-03-16T01:02:41.504Z,14.55
2019-03-16T01:05:10.541Z,12.23
2019-03-16T01:07:39.387Z,13.18
2019-03-16T01:10:10.835Z,15.03
2019-03-16T01:12:39.696Z,15.40
2019-03-16T01:15:11.261Z,11.43
2019-03-16T01:17:40.144Z,21.10
2019-03-16T01:20:10.656Z,15.43
2019-03-16T01:22:39.516Z,22.48
2019-03-16T01:25:09.332Z,22.73
2019-03-16T01:27:38.188Z,21.73
2019-03-16T01:30:12.574Z,23.45
2019-03-16T01:32:41.298Z,22.22
2019-03-16T01:35:10.347Z,30.68
2019-03-16T01:37:39.372Z,28.20
2019-03-16T01:40:10.063Z,32.03
2019-03-16T01:42:39.084Z,30.50
2019-03-16T01:45:10.933Z,30.00
2019-03-16T01:47:40.075Z,35.43
2019-03-16T01:50:11.402Z,33.65
2019-03-16T01:52:40.449Z,39.13
2019-03-16T01:55:09.672Z,37.17
2019-03-16T01:57:41.132Z,36.58
2019-03-16T02:00:14.476Z,34.08
2019-03-16T02:02:54.535Z,36.45
2019-03-16T02:05:14.739Z,33.40
2019-03-16T02:07:43.776Z,33.95
2019-03-16T02:10:12.812Z,31.97
2019-03-16T02:12:41.855Z,29.75
2019-03-16T02:15:10.976Z,25.68
2019-03-16T02:17:40.062Z,38.17
2019-03-16T02:20:09.561Z,39.05
2019-03-16T02:22:38.605Z,39.33
2019-03-16T02:25:08.808Z,36.35
2019-03-16T02:27:37.851Z,38.05
2019-03-16T02:30:11.175Z,44.30
2019-03-16T02:32:40.299Z,32.42
2019-03-16T02:35:10.976Z,34.58
2019-03-16T02:37:40.024Z,23.75
2019-03-16T02:40:11.437Z,29.87
2019-03-16T02:42:40.486Z,32.25
2019-03-16T02:45:10.685Z,41.85
2019-03-16T02:47:39.848Z,23.40
2019-03-16T02:50:10.945Z,30.40
2019-03-16T02:52:39.990Z,40.12
2019-03-16T02:55:09.901Z,29.40
2019-03-16T02:57:41.478Z,34.83
2019-03-16T03:00:13.933Z,38.55
2019-03-16T03:02:43.090Z,29.02
2019-03-16T03:05:12.117Z,33.35
2019-03-16T03:07:41.163Z,33.73
2019-03-16T03:10:15.024Z,30.72
2019-03-16T03:12:43.769Z,27.80
2019-03-16T03:15:12.817Z,26.45
2019-03-16T03:17:42.022Z,32.23
2019-03-16T03:20:11.217Z,34.70
2019-03-16T03:22:40.264Z,27.07
2019-03-16T03:25:09.311Z,40.15
2019-03-16T03:27:38.359Z,43.65
2019-03-16T03:30:10.669Z,47.43
2019-03-16T03:32:39.864Z,42.13
2019-03-16T03:35:09.845Z,43.78
2019-03-16T03:37:38.944Z,38.88
2019-03-16T03:40:10.030Z,34.35
2019-03-16T03:42:40.729Z,46.13
2019-03-16T03:45:11.296Z,38.13
2019-03-16T03:47:40.428Z,38.78
2019-03-16T03:50:14.210Z,37.42
2019-03-16T03:52:43.012Z,40.60
2019-03-16T03:55:15.218Z,41.33
2019-03-16T03:57:44.253Z,30.02
2019-03-16T04:00:34.450Z,44.00
2019-03-16T04:03:03.690Z,43.85
2019-03-16T04:05:32.788Z,40.33
2019-03-16T04:08:01.877Z,35.60
2019-03-16T04:10:30.920Z,38.85
2019-03-16T04:13:00.001Z,61.63
2019-03-16T04:15:29.117Z,41.10
2019-03-16T04:17:58.173Z,35.20
2019-03-16T04:20:27.285Z,38.80
2019-03-16T04:22:56.351Z,35.23
2019-03-16T04:25:26.932Z,51.90
2019-03-16T04:27:56.060Z,46.65
2019-03-16T04:30:25.195Z,50.00
2019-03-16T04:32:54.308Z,35.00
2019-03-16T04:35:23.351Z,40.50
2019-03-16T04:37:52.418Z,37.38
2019-03-16T04:40:21.465Z,40.38
2019-03-16T04:42:50.785Z,36.20
2019-03-16T04:45:19.839Z,35.35
2019-03-16T04:47:48.888Z,41.20
2019-03-16T04:50:17.925Z,43.90
2019-03-16T04:52:46.974Z,43.78
2019-03-16T04:55:16.017Z,51.55
2019-03-16T04:57:45.059Z,48.52
2019-03-16T05:00:14.760Z,39.40
2019-03-16T05:02:43.891Z,48.98
2019-03-16T05:05:14.298Z,37.80
2019-03-16T05:07:43.354Z,38.85
2019-03-16T05:10:12.673Z,35.90
2019-03-16T05:12:41.835Z,48.42
2019-03-16T05:15:13.956Z,41.48
2019-03-16T05:17:43.009Z,34.65
2019-03-16T05:20:12.417Z,43.30
2019-03-16T05:22:41.473Z,35.03
2019-03-16T05:25:11.256Z,46.40
2019-03-16T05:27:40.325Z,44.67
2019-03-16T05:30:13.525Z,35.60
2019-03-16T05:32:42.616Z,37.73
2019-03-16T05:35:11.764Z,43.35
2019-03-16T05:37:40.829Z,42.17
2019-03-16T05:40:10.851Z,37.25
2019-03-16T05:42:39.953Z,52.03
2019-03-16T05:45:09.746Z,46.98
2019-03-16T05:47:38.853Z,41.25
2019-03-16T05:50:13.008Z,45.25
2019-03-16T05:52:41.761Z,41.33
2019-03-16T05:55:10.957Z,34.53
2019-03-16T05:57:41.548Z,39.78
2019-03-16T06:00:13.576Z,33.18
2019-03-16T06:02:42.792Z,40.48
2019-03-16T06:05:11.926Z,36.13
2019-03-16T06:07:41.044Z,48.13
2019-03-16T06:10:11.841Z,42.38
2019-03-16T06:12:40.875Z,54.10
2019-03-16T06:15:10.982Z,45.48
2019-03-16T06:17:40.163Z,34.25
2019-03-16T06:20:11.364Z,39.03
2019-03-16T06:22:41.360Z,34.48
2019-03-16T06:25:10.489Z,38.80
2019-03-16T06:27:39.609Z,45.75
2019-03-16T06:30:13.187Z,44.05
2019-03-16T06:32:41.662Z,26.93
2019-03-16T06:35:23.403Z,45.78
2019-03-16T06:37:41.648Z,35.45
2019-03-16T06:40:13.709Z,38.17
2019-03-16T06:42:42.752Z,41.53
2019-03-16T06:45:12.487Z,38.92
2019-03-16T06:47:41.540Z,42.05
2019-03-16T06:50:16.485Z,34.10
2019-03-16T06:52:45.608Z,43.15
2019-03-16T06:55:14.649Z,31.55
2019-03-16T06:57:43.693Z,35.88
2019-03-16T07:00:17.265Z,33.45
2019-03-16T07:02:46.016Z,27.67
2019-03-16T07:05:15.212Z,38.38
2019-03-16T07:07:44.260Z,39.48
2019-03-16T07:10:14.047Z,33.55
2019-03-16T07:12:43.159Z,44.42
2019-03-16T07:15:13.242Z,32.00
2019-03-16T07:17:42.294Z,41.23
2019-03-16T07:20:13.177Z,37.88
2019-03-16T07:22:42.256Z,30.17
2019-03-16T07:25:12.741Z,38.95
2019-03-16T07:27:41.790Z,32.13
2019-03-16T07:30:12.574Z,35.38
2019-03-16T07:32:41.607Z,32.48
2019-03-16T07:35:10.635Z,32.67
2019-03-16T07:37:39.699Z,39.30
2019-03-16T07:40:13.173Z,33.00
2019-03-16T07:42:41.990Z,31.12
2019-03-16T07:45:12.379Z,36.83
2019-03-16T07:47:41.432Z,40.17
2019-03-16T07:50:13.116Z,37.75
2019-03-16T07:52:42.181Z,37.58
2019-03-16T07:55:12.892Z,39.13
2019-03-16T07:57:41.952Z,43.05
2019-03-16T08:00:12.045Z,39.55
2019-03-16T08:02:41.089Z,48.92
2019-03-16T08:05:18.164Z,39.45
2019-03-16T08:07:41.045Z,34.78
2019-03-16T08:10:10.834Z,36.33
2019-03-16T08:12:39.945Z,32.67
2019-03-16T08:15:10.043Z,36.35
2019-03-16T08:17:39.177Z,39.53
2019-03-16T08:20:09.459Z,36.75
2019-03-16T08:22:38.534Z,35.88
2019-03-16T08:25:08.407Z,31.85
2019-03-16T08:27:37.444Z,32.53
2019-03-16T08:30:09.176Z,32.00
2019-03-16T08:32:38.292Z,30.65
2019-03-16T08:35:08.348Z,25.45
2019-03-16T08:37:37.423Z,27.07
2019-03-16T08:40:10.913Z,25.55
2019-03-16T08:42:39.469Z,19.40
2019-03-16T08:45:09.605Z,32.35
2019-03-16T08:47:38.669Z,37.88
2019-03-16T08:50:09.163Z,37.20
2019-03-16T08:52:38.212Z,37.95
2019-03-16T08:55:08.501Z,31.97
2019-03-16T08:57:37.561Z,37.13
2019-03-16T09:00:13.691Z,36.28
2019-03-16T09:02:42.743Z,33.58
2019-03-16T09:05:11.791Z,32.35
2019-03-16T09:07:40.957Z,32.80
2019-03-16T09:10:10.683Z,26.15
2019-03-16T09:12:39.715Z,29.70
2019-03-16T09:15:12.050Z,26.20
2019-03-16T09:17:41.134Z,34.95
2019-03-16T09:20:10.303Z,33.18
2019-03-16T09:22:39.337Z,33.50
2019-03-16T09:25:09.984Z,24.40
2019-03-16T09:27:39.083Z,29.63
2019-03-16T09:30:13.800Z,37.73
2019-03-16T09:32:42.925Z,27.60
2019-03-16T09:35:12.041Z,30.70
2019-03-16T09:37:41.078Z,31.55
2019-03-16T09:40:10.899Z,28.57
2019-03-16T09:42:39.931Z,29.63
2019-03-16T09:45:10.702Z,26.52
2019-03-16T09:47:39.764Z,25.12
2019-03-16T09:50:10.049Z,28.15
2019-03-16T09:52:39.252Z,31.90
2019-03-16T09:55:10.631Z,30.82
2019-03-16T09:57:39.715Z,31.10
2019-03-16T10:00:13.496Z,23.85
2019-03-16T10:02:42.250Z,27.93
2019-03-16T10:05:11.366Z,27.93
2019-03-16T10:07:40.464Z,26.73
2019-03-16T10:10:12.108Z,32.25
2019-03-16T10:12:41.140Z,28.65
2019-03-16T10:15:11.836Z,30.85
2019-03-16T10:17:40.932Z,32.08
2019-03-16T10:20:11.610Z,27.45
2019-03-16T10:22:40.652Z,18.92
2019-03-16T10:25:09.803Z,23.15
2019-03-16T10:27:38.853Z,23.27
2019-03-16T10:30:14.072Z,22.98
2019-03-16T10:32:43.140Z,13.93
2019-03-16T10:35:12.200Z,23.62
2019-03-16T10:37:41.253Z,23.57
2019-03-16T10:40:11.741Z,17.77
2019-03-16T10:42:40.816Z,16.00
2019-03-16T10:45:11.538Z,18.55
2019-03-16T10:47:40.633Z,12.00
2019-03-16T10:50:11.421Z,11.83
2019-03-16T10:52:40.538Z,11.18
2019-03-16T10:55:09.640Z,9.63
2019-03-16T10:57:38.747Z,7.17
2019-03-16T11:00:13.011Z,7.17
2019-03-16T11:02:41.492Z,7.55
2019-03-16T11:05:10.605Z,6.62
2019-03-16T11:07:39.641Z,5.83
2019-03-16T11:10:10.720Z,6.92
2019-03-16T11:12:39.759Z,8.53
2019-03-16T11:15:13.344Z,14.65
2019-03-16T11:17:41.820Z,10.27
2019-03-16T11:20:18.396Z,11.45
2019-03-16T11:22:48.965Z,8.45
2019-03-16T11:25:17.987Z,5.30
2019-03-16T11:27:47.067Z,7.62
2019-03-16T11:30:17.461Z,12.30
2019-03-16T11:32:46.506Z,9.95
2019-03-16T11:35:15.617Z,6.87
2019-03-16T11:37:45.672Z,8.30
2019-03-16T11:40:18.477Z,9.25
2019-03-16T11:42:47.582Z,9.50
2019-03-16T11:45:18.150Z,12.07
2019-03-16T11:47:47.255Z,10.45
2019-03-16T11:50:16.360Z,8.33
2019-03-16T11:52:45.523Z,10.85
2019-03-16T11:55:14.559Z,8.18
2019-03-16T11:57:43.660Z,10.13
2019-03-16T12:00:14.145Z,8.28
2019-03-16T12:02:43.196Z,13.18
2019-03-16T12:05:12.472Z,12.65
2019-03-16T12:07:41.545Z,13.22
2019-03-16T12:10:11.847Z,12.93
2019-03-16T12:12:40.944Z,11.20
2019-03-16T12:15:14.318Z,9.65
2019-03-16T12:17:43.350Z,12.25
2019-03-16T12:20:20.052Z,10.20
2019-03-16T12:22:49.232Z,9.20
2019-03-16T12:25:18.303Z,13.00
2019-03-16T12:27:47.416Z,12.13
2019-03-16T12:30:16.707Z,11.60
2019-03-16T12:32:47.372Z,8.70
2019-03-16T12:35:16.451Z,8.98
2019-03-16T12:37:45.551Z,11.35
2019-03-16T12:40:15.536Z,9.15
2019-03-16T12:42:44.641Z,7.58
2019-03-16T12:45:20.417Z,10.25
2019-03-16T12:47:49.076Z,6.53
2019-03-16T12:50:21.140Z,11.10
2019-03-16T12:52:50.282Z,13.08
2019-03-16T12:55:19.367Z,8.93
2019-03-16T12:57:48.614Z,17.70
2019-03-16T13:00:20.801Z,9.05
2019-03-16T13:02:49.904Z,9.30
2019-03-16T13:05:18.971Z,10.88
2019-03-16T13:07:48.119Z,9.88
2019-03-16T13:10:19.179Z,10.03
2019-03-16T13:12:48.315Z,5.35
2019-03-16T13:15:17.534Z,4.15
2019-03-16T13:17:48.101Z,4.28
2019-03-16T13:20:17.703Z,5.00
2019-03-16T13:22:46.738Z,5.42
2019-03-16T13:25:15.857Z,3.55
2019-03-16T13:27:44.898Z,3.02
2019-03-16T13:30:20.807Z,3.45
2019-03-16T13:32:49.843Z,4.33
2019-03-16T13:35:18.938Z,5.67
2019-03-16T13:37:48.046Z,2.92
2019-03-16T13:40:17.930Z,4.20
2019-03-16T13:42:49.656Z,3.50
2019-03-16T13:45:18.752Z,4.37
2019-03-16T13:47:47.803Z,3.08
2019-03-16T13:50:20.663Z,4.90
2019-03-16T13:52:49.972Z,1.40
2019-03-16T13:55:19.015Z,1.80
2019-03-16T13:57:48.131Z,1.70
2019-03-16T14:00:20.955Z,2.62
2019-03-16T14:02:50.119Z,2.42
2019-03-16T14:05:19.225Z,1.52
2019-03-16T14:07:48.269Z,0.85
2019-03-16T14:10:19.137Z,2.40
2019-03-16T14:12:48.202Z,2.50
2019-03-16T14:15:18.860Z,2.98
2019-03-16T14:17:47.908Z,1.15
2019-03-16T14:20:17.473Z,1.60
2019-03-16T14:22:46.512Z,1.25
2019-03-16T14:25:15.617Z,1.32
2019-03-16T14:27:44.732Z,3.90
2019-03-16T14:30:34.850Z,2.52
2019-03-16T14:32:48.276Z,1.47
2019-03-16T14:35:17.303Z,1.85
2019-03-16T14:37:46.351Z,3.30
2019-03-16T14:40:16.032Z,1.85
2019-03-16T14:42:47.404Z,2.55
2019-03-16T14:45:17.087Z,1.35
2019-03-16T14:47:46.220Z,2.77
2019-03-16T14:50:25.792Z,3.40
2019-03-16T14:52:54.840Z,2.02
2019-03-16T14:55:23.872Z,2.85
2019-03-16T14:57:52.925Z,1.30
2019-03-16T15:00:21.950Z,0.75
2019-03-16T15:02:51.046Z,2.87
2019-03-16T15:05:20.081Z,1.65
2019-03-16T15:07:50.014Z,1.95
2019-03-16T15:10:19.634Z,1.80
2019-03-16T15:12:48.680Z,2.35
2019-03-16T15:15:19.831Z,2.05
2019-03-16T15:17:48.897Z,1.70
2019-03-16T15:20:18.076Z,1.72
2019-03-16T15:22:47.125Z,2.00
2019-03-16T15:25:16.164Z,2.33
2019-03-16T15:27:45.203Z,3.60
2019-03-16T15:30:19.034Z,3.05
2019-03-16T15:32:47.844Z,2.85
2019-03-16T15:35:16.887Z,2.90
2019-03-16T15:37:45.934Z,2.50
2019-03-16T15:40:16.012Z,2.85
2019-03-16T15:42:45.057Z,2.65
2019-03-16T15:45:18.968Z,2.40
2019-03-16T15:47:47.730Z,2.77
2019-03-16T15:50:16.826Z,3.30
2019-03-16T15:52:45.909Z,3.52
2019-03-16T15:55:14.948Z,4.45
2019-03-16T15:57:43.974Z,3.33
2019-03-16T16:00:15.633Z,4.85
2019-03-16T16:02:44.661Z,5.33
2019-03-16T16:05:13.841Z,3.90
2019-03-16T16:07:43.025Z,5.45
2019-03-16T16:10:17.428Z,8.10
2019-03-16T16:15:14.532Z,21.17
2019-03-16T16:17:43.588Z,22.02
2019-03-16T16:20:14.046Z,31.02
2019-03-16T16:22:43.089Z,30.57
2019-03-16T16:25:12.936Z,28.35
2019-03-16T16:27:41.990Z,24.80
2019-03-16T16:30:14.062Z,22.20
2019-03-16T16:32:43.092Z,30.68
2019-03-16T16:35:15.644Z,31.82
2019-03-16T16:37:44.683Z,24.27
2019-03-16T16:40:15.857Z,38.23
2019-03-16T16:42:44.883Z,27.73
2019-03-16T16:45:15.347Z,25.05
2019-03-16T16:47:44.455Z,33.85
2019-03-16T16:50:21.097Z,25.55
2019-03-16T16:52:50.140Z,35.73
2019-03-16T16:55:19.205Z,26.45
2019-03-16T16:57:48.309Z,36.53
2019-03-16T17:00:27.351Z,31.20
2019-03-16T17:02:56.458Z,19.57
2019-03-16T17:05:25.500Z,25.72
2019-03-16T17:07:54.550Z,35.08
2019-03-16T17:10:23.587Z,29.00
2019-03-16T17:12:52.639Z,28.30
2019-03-16T17:15:23.132Z,35.73
2019-03-16T17:17:52.169Z,29.80
2019-03-16T17:20:21.205Z,31.25
2019-03-16T17:22:50.246Z,31.87
2019-03-16T17:25:19.285Z,26.97
2019-03-16T17:27:48.338Z,19.42
2019-03-16T17:30:28.379Z,29.25
2019-03-16T17:32:57.410Z,31.30
2019-03-16T17:35:26.436Z,30.90
2019-03-16T17:37:55.563Z,30.70
2019-03-16T17:40:24.619Z,34.05
2019-03-16T17:42:53.700Z,30.12
2019-03-16T17:45:22.750Z,40.10
2019-03-16T17:47:51.780Z,31.17
2019-03-16T17:50:20.816Z,29.85
2019-03-16T17:52:49.915Z,32.75
2019-03-16T17:55:19.425Z,32.00
2019-03-16T17:57:48.477Z,36.85
2019-03-16T18:00:19.325Z,36.00
2019-03-16T18:02:52.687Z,43.87
2019-03-16T18:05:19.835Z,37.67
2019-03-16T18:07:48.888Z,45.05
2019-03-16T18:10:17.920Z,33.80
2019-03-16T18:12:46.980Z,34.70
2019-03-16T18:15:18.424Z,32.95
2019-03-16T18:17:47.472Z,39.25
2019-03-16T18:20:18.235Z,42.13
2019-03-16T18:22:48.224Z,36.17
2019-03-16T18:25:17.627Z,38.05
2019-03-16T18:27:46.744Z,27.07
2019-03-16T18:30:17.883Z,36.48
2019-03-16T18:32:46.943Z,35.25
2019-03-16T18:35:16.086Z,35.33
2019-03-16T18:37:45.206Z,31.25
2019-03-16T18:40:16.271Z,40.52
2019-03-16T18:42:45.333Z,35.52
2019-03-16T18:45:19.506Z,38.83
2019-03-16T18:47:48.254Z,29.55
2019-03-16T18:50:17.312Z,39.35
2019-03-16T18:52:46.379Z,38.48
2019-03-16T18:55:15.411Z,36.38
2019-03-16T18:57:44.473Z,38.20
2019-03-16T19:00:15.253Z,41.15
2019-03-16T19:02:44.319Z,41.90
2019-03-16T19:05:14.880Z,50.70
2019-03-16T19:07:44.336Z,32.08
2019-03-16T19:10:16.458Z,43.38
2019-03-16T19:12:45.576Z,40.70
2019-03-16T19:15:15.968Z,46.35
2019-03-16T19:17:57.596Z,36.85
2019-03-16T19:20:16.964Z,39.70
2019-03-16T19:22:46.252Z,38.95
2019-03-16T19:25:18.034Z,37.65
2019-03-16T19:27:47.077Z,42.40
2019-03-16T19:30:17.079Z,38.98
2019-03-16T19:32:46.126Z,35.20
2019-03-16T19:35:15.243Z,34.50
2019-03-16T19:37:44.386Z,43.52
2019-03-16T19:40:18.431Z,35.00
2019-03-16T19:42:47.452Z,38.30
2019-03-16T19:45:16.616Z,35.78
2019-03-16T19:47:45.668Z,45.05
2019-03-16T19:50:15.668Z,34.70
2019-03-16T19:52:44.798Z,45.00
2019-03-16T19:55:14.452Z,35.60
2019-03-16T19:57:43.506Z,37.15
2019-03-16T20:00:14.676Z,46.25
2019-03-16T20:02:50.312Z,48.35
2019-03-16T20:05:14.568Z,43.48
2019-03-16T20:07:43.615Z,58.40
2019-03-16T20:10:16.945Z,49.40
2019-03-16T20:12:45.625Z,35.07
2019-03-16T20:15:15.602Z,53.08
2019-03-16T20:17:44.715Z,48.15
2019-03-16T20:20:15.758Z,51.68
2019-03-16T20:22:44.790Z,53.25
2019-03-16T20:25:15.399Z,53.85
2019-03-16T20:27:46.662Z,47.80
2019-03-16T20:30:25.710Z,49.63
2019-03-16T20:32:50.180Z,45.55
2019-03-16T20:35:18.716Z,50.92
2019-03-16T20:37:48.089Z,49.18
2019-03-16T20:40:17.551Z,58.73
2019-03-16T20:42:49.496Z,45.33
2019-03-16T20:45:17.840Z,54.38
2019-03-16T20:47:47.094Z,38.73
2019-03-16T20:50:17.490Z,43.08
2019-03-16T20:52:47.049Z,47.90
2019-03-16T20:55:16.200Z,40.38
2019-03-16T20:57:47.046Z,48.60
2019-03-16T21:00:17.179Z,52.35
2019-03-16T21:02:47.129Z,41.28
2019-03-16T21:05:16.437Z,47.73
2019-03-16T21:07:45.562Z,50.10
2019-03-16T21:10:14.698Z,39.90
2019-03-16T21:12:43.872Z,35.75
2019-03-16T21:15:14.629Z,60.70
2019-03-16T21:17:43.838Z,42.73
2019-03-16T21:20:19.616Z,48.58
2019-03-16T21:22:48.790Z,46.63
2019-03-16T21:25:18.144Z,46.98
2019-03-16T21:27:47.341Z,42.60
2019-03-16T21:30:20.541Z,41.53
2019-03-16T21:32:51.272Z,36.28
2019-03-16T21:35:20.331Z,37.05
2019-03-16T21:37:49.466Z,36.10
2019-03-16T21:40:18.553Z,41.42
2019-03-16T21:42:47.774Z,37.03
2019-03-16T21:45:16.855Z,37.63
2019-03-16T21:47:46.021Z,33.85
2019-03-16T21:50:15.956Z,28.95
2019-03-16T21:52:45.219Z,34.78
2019-03-16T21:55:15.818Z,41.00
2019-03-16T21:57:44.953Z,44.08
2019-03-16T22:00:17.632Z,33.60
2019-03-16T22:02:46.688Z,38.23
2019-03-16T22:05:15.748Z,39.58
2019-03-16T22:07:44.892Z,38.10
2019-03-16T22:10:16.233Z,30.45
2019-03-16T22:12:45.357Z,41.70
2019-03-16T22:15:18.105Z,35.85
2019-03-16T22:17:53.784Z,33.92
2019-03-16T22:20:22.907Z,35.70
2019-03-16T22:22:51.967Z,30.45
2019-03-16T22:25:21.008Z,28.83
2019-03-16T22:27:51.765Z,33.55
2019-03-16T22:30:20.943Z,34.43
2019-03-16T22:32:50.080Z,31.35
2019-03-16T22:35:19.130Z,32.55
2019-03-16T22:37:48.172Z,36.65
2019-03-16T22:40:17.220Z,33.90
2019-03-16T22:42:46.263Z,28.95
2019-03-16T22:45:15.484Z,33.08
2019-03-16T22:47:44.542Z,38.45
2019-03-16T22:50:21.309Z,33.70
2019-03-16T22:52:50.473Z,29.12
2019-03-16T22:55:20.215Z,37.75
2019-03-16T22:57:50.859Z,29.75
2019-03-16T23:00:24.180Z,32.08
2019-03-16T23:02:53.229Z,31.00
2019-03-16T23:05:22.306Z,37.00
2019-03-16T23:11:02.245Z,39.05
2019-03-16T23:13:31.433Z,32.33
2019-03-16T23:16:00.606Z,37.23
2019-03-16T23:18:29.677Z,24.27
2019-03-16T23:20:58.728Z,41.23
2019-03-16T23:23:27.973Z,34.92
2019-03-16T23:25:57.039Z,30.45
2019-03-16T23:28:26.140Z,33.35
2019-03-16T23:30:57.039Z,29.27
2019-03-16T23:33:26.086Z,32.35
2019-03-16T23:35:55.212Z,27.80
2019-03-16T23:38:24.258Z,29.65
2019-03-16T23:40:54.550Z,32.35
2019-03-16T23:43:23.748Z,33.63
2019-03-16T23:45:52.907Z,30.40
2019-03-16T23:48:22.035Z,23.02
2019-03-16T23:50:51.110Z,34.08
2019-03-16T23:53:20.209Z,28.15
2019-03-16T23:55:49.333Z,31.55
2019-03-16T23:58:18.378Z,34.92
